Time;durP1;ratioP1;P1;durP2;ratioP2;P2;SDS_P1;SDS_P2;PMS_P1;PMS_P2;Temp;Humidity;BMP_temperature;BMP_pressure;BME280_temperature;BME280_humidity;BME280_pressure;Samples;Min_cycle;Max_cycle;Signal;HPM_P1;HPM_P2
2021/03/07 00:02:13;;;;;;;14.02;6.53;;;-2.00;75.00;;;;;;5072535;28;20490;-80
2021/03/07 00:04:39;;;;;;;13.43;7.28;;;-2.00;75.10;;;;;;5073393;28;20048;-81
2021/03/07 00:07:05;;;;;;;14.18;7.55;;;-2.00;75.10;;;;;;5073427;28;20379;-81
2021/03/07 00:09:31;;;;;;;13.10;6.75;;;-2.10;75.20;;;;;;5072123;28;20028;-81
2021/03/07 00:11:56;;;;;;;13.23;7.25;;;-2.10;75.30;;;;;;5073625;28;20099;-79
2021/03/07 00:14:22;;;;;;;12.18;6.78;;;-2.10;75.30;;;;;;5073898;28;20035;-81
2021/03/07 00:16:48;;;;;;;12.23;6.88;;;-2.10;75.30;;;;;;5073583;28;20368;-80
2021/03/07 00:19:13;;;;;;;11.98;6.85;;;-2.10;75.30;;;;;;5072475;28;20025;-79
2021/03/07 00:21:39;;;;;;;13.27;7.28;;;-2.20;75.30;;;;;;5072830;28;20075;-79
2021/03/07 00:24:05;;;;;;;12.65;6.55;;;-2.20;75.40;;;;;;5073575;28;20032;-80
2021/03/07 00:26:31;;;;;;;14.63;6.93;;;-2.20;75.50;;;;;;5072479;28;20112;-81
2021/03/07 00:28:57;;;;;;;11.18;6.68;;;-2.30;75.50;;;;;;5073558;28;20048;-81
2021/03/07 00:31:22;;;;;;;12.48;6.45;;;-2.30;75.50;;;;;;5074459;28;20443;-86
2021/03/07 00:33:48;;;;;;;11.68;6.60;;;-2.40;75.60;;;;;;5074952;28;20025;-86
2021/03/07 00:36:14;;;;;;;12.23;7.07;;;-2.30;75.70;;;;;;5074964;28;20032;-86
2021/03/07 00:38:39;;;;;;;11.32;7.03;;;-2.40;75.80;;;;;;5073547;28;20032;-85
2021/03/07 00:41:05;;;;;;;10.35;6.93;;;-2.40;75.80;;;;;;5073349;28;20024;-86
2021/03/07 00:43:31;;;;;;;12.32;7.63;;;-2.40;75.90;;;;;;5076015;28;20034;-85
2021/03/07 00:45:56;;;;;;;15.00;7.60;;;-2.40;75.90;;;;;;5076971;28;20043;-85
2021/03/07 00:48:23;;;;;;;13.02;7.20;;;-2.40;76.00;;;;;;5077023;28;20029;-85
2021/03/07 00:50:48;;;;;;;14.90;7.32;;;-2.40;75.90;;;;;;5077145;28;20028;-85
2021/03/07 00:53:14;;;;;;;14.77;7.63;;;-2.50;75.90;;;;;;5078129;28;20032;-86
2021/03/07 00:55:40;;;;;;;14.27;6.95;;;-2.50;75.90;;;;;;5081839;28;20120;-85
2021/03/07 00:58:05;;;;;;;13.02;7.72;;;-2.50;76.00;;;;;;5089909;28;20038;-83
2021/03/07 01:00:31;;;;;;;12.68;7.10;;;-2.50;76.00;;;;;;5078498;28;20029;-83
2021/03/07 01:02:57;;;;;;;15.20;7.30;;;-2.60;76.00;;;;;;5077800;28;20190;-84
2021/03/07 01:05:28;;;;;;;12.10;6.95;;;-2.50;76.10;;;;;;5077043;28;20497;-84
2021/03/07 01:07:54;;;;;;;14.60;7.55;;;-2.60;76.20;;;;;;5078062;28;20540;-84
2021/03/07 01:10:28;;;;;;;12.85;7.25;;;-2.60;76.30;;;;;;5077833;28;20028;-84
2021/03/07 01:12:53;;;;;;;12.48;7.43;;;-2.60;76.40;;;;;;5076566;28;20035;-84
2021/03/07 01:15:26;;;;;;;17.40;8.32;;;-2.60;76.50;;;;;;5077876;28;20058;-84
2021/03/07 01:17:52;;;;;;;11.32;7.20;;;-2.60;76.50;;;;;;5076398;28;20387;-86
2021/03/07 01:20:18;;;;;;;11.73;6.90;;;-2.60;76.50;;;;;;5077494;28;20040;-84
2021/03/07 01:22:44;;;;;;;12.55;7.53;;;-2.60;76.50;;;;;;5078023;28;20029;-84
2021/03/07 01:25:11;;;;;;;11.75;7.65;;;-2.60;76.60;;;;;;5076575;28;20032;-84
2021/03/07 01:27:38;;;;;;;14.23;7.85;;;-2.70;76.60;;;;;;5076662;28;20024;-84
2021/03/07 01:30:14;;;;;;;13.70;8.05;;;-2.70;76.60;;;;;;5078648;28;20086;-86
2021/03/07 01:32:40;;;;;;;17.77;8.23;;;-2.70;76.70;;;;;;5076637;28;20471;-85
2021/03/07 01:35:06;;;;;;;13.32;8.13;;;-2.70;76.70;;;;;;5077967;28;20032;-85
2021/03/07 01:37:32;;;;;;;15.23;7.90;;;-2.70;76.80;;;;;;5096650;28;20072;-85
2021/03/07 01:39:58;;;;;;;16.33;8.32;;;-2.70;76.80;;;;;;5091900;28;20078;-84
2021/03/07 01:42:23;;;;;;;15.75;8.18;;;-2.80;76.80;;;;;;5077023;28;20115;-86
2021/03/07 01:44:49;;;;;;;18.77;9.23;;;-2.80;76.80;;;;;;5077966;28;20031;-86
2021/03/07 01:47:33;;;;;;;16.17;8.15;;;-2.80;76.90;;;;;;5077622;28;20020;-86
2021/03/07 01:50:00;;;;;;;18.40;9.13;;;-2.80;77.00;;;;;;5077411;28;20016;-85
2021/03/07 01:52:26;;;;;;;14.48;8.85;;;-2.80;76.90;;;;;;5076388;28;20024;-85
2021/03/07 01:54:52;;;;;;;15.57;9.05;;;-2.80;77.10;;;;;;5075980;28;20024;-86
2021/03/07 01:57:20;;;;;;;17.20;9.48;;;-2.90;77.00;;;;;;5076614;28;20032;-85
2021/03/07 01:59:48;;;;;;;16.67;8.73;;;-2.90;77.10;;;;;;5077872;28;20017;-87
2021/03/07 02:02:14;;;;;;;18.88;9.80;;;-2.90;77.20;;;;;;5076985;28;20073;-87
2021/03/07 02:04:40;;;;;;;16.65;9.10;;;-2.90;77.20;;;;;;5076729;28;20060;-87
2021/03/07 02:07:06;;;;;;;16.15;8.63;;;-2.90;77.30;;;;;;5077284;28;20028;-87
2021/03/07 02:09:32;;;;;;;20.52;9.27;;;-2.90;77.30;;;;;;5078672;28;20402;-87
2021/03/07 02:11:59;;;;;;;15.70;8.55;;;-3.00;77.30;;;;;;5077782;28;20035;-88
2021/03/07 02:14:28;;;;;;;18.38;9.38;;;-3.00;77.30;;;;;;5076875;28;20059;-88
2021/03/07 02:16:54;;;;;;;18.23;9.10;;;-3.00;77.40;;;;;;5090727;28;20044;-89
2021/03/07 02:19:25;;;;;;;16.20;8.82;;;-3.00;77.50;;;;;;5096332;28;20036;-89
2021/03/07 02:21:56;;;;;;;17.05;8.55;;;-3.00;77.50;;;;;;5077913;28;20078;-88
2021/03/07 02:24:22;;;;;;;17.23;9.07;;;-3.00;77.50;;;;;;5078098;28;20028;-88
2021/03/07 02:26:50;;;;;;;14.15;8.10;;;-3.10;77.50;;;;;;5076509;28;20039;-87
2021/03/07 02:29:19;;;;;;;21.15;9.02;;;-3.10;77.50;;;;;;5077281;28;20029;-88
2021/03/07 02:31:50;;;;;;;15.30;8.38;;;-3.10;77.50;;;;;;5076600;28;20033;-88
2021/03/07 02:34:21;;;;;;;14.48;8.52;;;-3.10;77.60;;;;;;5077182;28;20078;-88
2021/03/07 02:36:53;;;;;;;20.67;8.73;;;-3.10;77.60;;;;;;5077117;28;20115;-87
2021/03/07 02:39:23;;;;;;;13.90;9.00;;;-3.10;77.70;;;;;;5078051;28;20047;-87
2021/03/07 02:41:49;;;;;;;17.33;8.60;;;-3.10;77.60;;;;;;5077493;28;20071;-89
2021/03/07 02:44:18;;;;;;;15.27;8.98;;;-3.10;77.70;;;;;;5076760;28;20073;-87
2021/03/07 02:46:46;;;;;;;16.70;8.70;;;-3.20;77.70;;;;;;5076681;28;20104;-84
2021/03/07 02:49:16;;;;;;;13.40;8.65;;;-3.20;77.70;;;;;;5075535;28;20534;-84
2021/03/07 02:51:44;;;;;;;14.73;8.27;;;-3.20;77.70;;;;;;5075207;28;20028;-83
2021/03/07 02:54:11;;;;;;;14.80;8.07;;;-3.10;77.80;;;;;;5073612;28;20020;-83
2021/03/07 02:56:38;;;;;;;14.90;8.65;;;-3.20;77.70;;;;;;5080147;28;20032;-84
2021/03/07 02:59:11;;;;;;;15.23;8.13;;;-3.20;77.70;;;;;;5084308;28;20024;-84
2021/03/07 03:01:39;;;;;;;16.38;8.25;;;-3.20;77.80;;;;;;5076423;28;20068;-85
2021/03/07 03:04:06;;;;;;;13.90;7.90;;;-3.20;77.80;;;;;;5076187;28;20052;-85
2021/03/07 03:06:35;;;;;;;13.48;7.40;;;-3.20;77.90;;;;;;5073032;28;20099;-85
2021/03/07 03:09:03;;;;;;;12.38;8.20;;;-3.20;77.90;;;;;;5073849;28;20031;-84
2021/03/07 03:11:36;;;;;;;12.63;7.45;;;-3.20;77.90;;;;;;5075039;28;20025;-84
2021/03/07 03:14:03;;;;;;;14.40;7.72;;;-3.30;77.80;;;;;;5073555;28;20025;-84
2021/03/07 03:16:31;;;;;;;14.98;7.57;;;-3.30;77.80;;;;;;5075102;28;20025;-84
2021/03/07 03:18:58;;;;;;;14.52;7.93;;;-3.30;77.80;;;;;;5074897;28;20020;-85
2021/03/07 03:21:24;;;;;;;17.13;8.35;;;-3.40;77.80;;;;;;5074741;28;20020;-85
2021/03/07 03:23:50;;;;;;;13.52;7.93;;;-3.40;77.80;;;;;;5077791;28;20446;-86
2021/03/07 03:26:19;;;;;;;15.45;8.02;;;-3.40;77.90;;;;;;5077888;28;20488;-87
2021/03/07 03:28:46;;;;;;;13.15;7.63;;;-3.40;78.00;;;;;;5077062;28;20032;-85
2021/03/07 03:31:12;;;;;;;17.67;7.97;;;-3.40;78.00;;;;;;5075841;28;20053;-85
2021/03/07 03:33:38;;;;;;;13.40;7.97;;;-3.50;78.00;;;;;;5075590;28;20032;-85
2021/03/07 03:36:04;;;;;;;13.68;8.05;;;-3.50;78.00;;;;;;5075960;28;20029;-83
2021/03/07 03:38:40;;;;;;;11.60;7.97;;;-3.50;78.00;;;;;;5088862;28;20017;-85
2021/03/07 03:41:08;;;;;;;13.65;8.02;;;-3.50;78.10;;;;;;5080264;28;20028;-85
2021/03/07 03:43:36;;;;;;;13.95;8.07;;;-3.50;78.10;;;;;;5074668;28;20017;-86
2021/03/07 03:46:03;;;;;;;14.35;8.05;;;-3.50;78.20;;;;;;5074697;28;20025;-86
2021/03/07 03:48:37;;;;;;;14.32;7.72;;;-3.50;78.20;;;;;;5074095;28;20091;-85
2021/03/07 03:51:06;;;;;;;14.70;8.50;;;-3.60;78.20;;;;;;5073183;28;20021;-85
2021/03/07 03:53:34;;;;;;;15.43;8.68;;;-3.60;78.30;;;;;;5072679;28;20028;-86
2021/03/07 03:56:00;;;;;;;14.45;8.32;;;-3.60;78.40;;;;;;5072802;28;20112;-86
2021/03/07 03:58:30;;;;;;;14.98;8.88;;;-3.50;78.50;;;;;;5072976;28;20017;-87
2021/03/07 04:00:56;;;;;;;18.02;8.93;;;-3.60;78.50;;;;;;5073740;28;20021;-87
2021/03/07 04:03:24;;;;;;;17.88;9.50;;;-3.60;78.50;;;;;;5073131;28;20048;-87
2021/03/07 04:05:51;;;;;;;15.73;8.93;;;-3.60;78.60;;;;;;5073374;28;20031;-86
2021/03/07 04:08:19;;;;;;;15.13;8.85;;;-3.50;78.60;;;;;;5074206;28;20024;-86
2021/03/07 04:10:46;;;;;;;16.35;9.48;;;-3.50;78.70;;;;;;5075261;28;20072;-87
2021/03/07 04:13:20;;;;;;;16.48;9.02;;;-3.50;78.60;;;;;;5073481;28;20387;-87
2021/03/07 04:15:46;;;;;;;16.80;9.30;;;-3.40;78.70;;;;;;5074160;28;20417;-87
2021/03/07 04:18:15;;;;;;;15.57;8.48;;;-3.40;78.70;;;;;;5099895;28;20016;-86
2021/03/07 04:20:45;;;;;;;15.80;8.98;;;-3.40;78.80;;;;;;5096383;28;20463;-88
2021/03/07 04:23:11;;;;;;;16.15;9.48;;;-3.30;78.80;;;;;;5080567;28;20048;-87
2021/03/07 04:25:38;;;;;;;18.95;9.23;;;-3.30;78.80;;;;;;5080893;28;20508;-86
2021/03/07 04:28:05;;;;;;;15.20;9.60;;;-3.30;78.80;;;;;;5079924;28;20032;-88
2021/03/07 04:30:33;;;;;;;15.02;9.07;;;-3.10;79.20;;;;;;5081660;28;20116;-87
2021/03/07 04:33:01;;;;;;;16.50;9.10;;;-2.90;80.30;;;;;;5080973;28;20028;-86
2021/03/07 04:35:28;;;;;;;18.25;8.15;;;-2.40;81.50;;;;;;5081017;28;20020;-86
2021/03/07 04:38:01;;;;;;;14.40;7.80;;;-1.80;82.20;;;;;;5079814;28;20081;-86
2021/03/07 04:40:27;;;;;;;15.73;8.40;;;-1.20;82.60;;;;;;5082645;28;20478;-86
2021/03/07 04:42:54;;;;;;;13.07;7.78;;;-0.40;82.60;;;;;;5081508;28;20059;-86
2021/03/07 04:45:20;;;;;;;13.20;7.68;;;0.30;81.40;;;;;;5079660;28;20032;-87
2021/03/07 04:47:46;;;;;;;12.02;7.38;;;0.70;79.10;;;;;;5079892;28;20032;-85
2021/03/07 04:50:13;;;;;;;11.30;7.38;;;1.00;77.60;;;;;;5080423;28;20474;-85
2021/03/07 04:52:39;;;;;;;11.38;7.80;;;1.20;76.40;;;;;;5078920;28;20028;-85
2021/03/07 04:55:06;;;;;;;12.52;7.30;;;1.30;75.10;;;;;;5079351;28;20031;-85
2021/03/07 04:57:32;;;;;;;12.52;7.15;;;1.20;73.90;;;;;;5089545;28;20025;-85
2021/03/07 04:59:58;;;;;;;12.75;8.00;;;1.20;73.30;;;;;;5089814;28;20130;-85
2021/03/07 05:02:23;;;;;;;13.18;8.02;;;1.20;73.10;;;;;;5080400;28;20020;-85
2021/03/07 05:04:49;;;;;;;14.18;8.10;;;1.20;72.90;;;;;;5081438;28;20081;-86
2021/03/07 05:07:15;;;;;;;12.57;8.00;;;1.30;72.90;;;;;;5079548;28;20024;-86
2021/03/07 05:09:40;;;;;;;12.00;7.30;;;1.60;73.70;;;;;;5080209;28;20107;-86
2021/03/07 05:12:06;;;;;;;12.15;8.15;;;2.20;74.00;;;;;;5080716;28;20027;-86
2021/03/07 05:14:32;;;;;;;14.10;8.00;;;2.80;73.40;;;;;;5079272;28;20112;-86
2021/03/07 05:16:59;;;;;;;18.38;8.10;;;3.20;71.90;;;;;;5080162;28;20485;-86
2021/03/07 05:19:25;;;;;;;12.57;7.78;;;3.70;70.90;;;;;;5079984;28;20109;-86
2021/03/07 05:21:51;;;;;;;12.60;8.02;;;4.00;69.80;;;;;;5078666;28;20020;-87
2021/03/07 05:24:17;;;;;;;13.57;7.68;;;4.40;68.70;;;;;;5079856;28;20463;-86
2021/03/07 05:26:44;;;;;;;13.02;7.75;;;4.60;67.70;;;;;;5078694;28;20153;-86
2021/03/07 05:29:10;;;;;;;11.80;7.22;;;4.90;66.70;;;;;;5076104;28;20028;-88
2021/03/07 05:31:36;;;;;;;14.63;8.10;;;5.20;65.60;;;;;;5074912;28;20359;-86
2021/03/07 05:34:01;;;;;;;11.23;7.85;;;5.30;64.60;;;;;;5075143;28;20032;-86
2021/03/07 05:36:27;;;;;;;11.70;7.90;;;5.20;63.30;;;;;;5077027;28;20024;-87
2021/03/07 05:38:54;;;;;;;13.05;8.07;;;5.20;62.50;;;;;;5084423;28;20379;-86
2021/03/07 05:41:20;;;;;;;12.05;7.68;;;5.10;62.00;;;;;;5088198;28;20475;-86
2021/03/07 05:43:47;;;;;;;15.00;7.50;;;5.00;62.30;;;;;;5076478;28;20147;-86
2021/03/07 05:46:13;;;;;;;14.60;7.65;;;4.90;61.40;;;;;;5075228;28;20048;-87
2021/03/07 05:48:39;;;;;;;13.73;7.47;;;4.90;61.30;;;;;;5074433;28;20422;-86
2021/03/07 05:51:08;;;;;;;14.25;7.00;;;5.00;61.20;;;;;;5076574;28;20024;-89
2021/03/07 05:53:34;;;;;;;13.95;7.78;;;5.30;61.10;;;;;;5075282;28;20047;-84
2021/03/07 05:56:01;;;;;;;13.32;7.75;;;5.60;61.00;;;;;;5074575;28;20443;-81
2021/03/07 05:58:27;;;;;;;17.23;7.97;;;6.00;60.70;;;;;;5073782;28;20047;-80
2021/03/07 06:00:53;;;;;;;12.50;7.90;;;6.40;59.70;;;;;;5073212;28;20028;-81
2021/03/07 06:03:22;;;;;;;15.52;8.30;;;6.70;59.00;;;;;;5074494;28;20079;-83
2021/03/07 06:05:50;;;;;;;14.57;7.85;;;7.10;58.40;;;;;;5073920;28;20115;-83
2021/03/07 06:08:16;;;;;;;11.35;7.85;;;7.50;57.60;;;;;;5073026;28;20024;-83
2021/03/07 06:10:42;;;;;;;13.40;7.85;;;7.80;56.90;;;;;;5074017;28;20029;-83
2021/03/07 06:13:11;;;;;;;12.30;7.80;;;8.20;56.00;;;;;;5074161;28;20040;-82
2021/03/07 06:15:39;;;;;;;20.30;8.85;;;8.50;55.20;;;;;;5075226;28;20474;-83
2021/03/07 06:18:12;;;;;;;20.70;8.05;;;8.70;54.00;;;;;;5073124;28;20056;-83
2021/03/07 06:20:38;;;;;;;11.40;7.60;;;8.80;53.00;;;;;;5072825;28;20021;-83
2021/03/07 06:23:03;;;;;;;13.93;8.07;;;8.80;52.20;;;;;;5073513;28;20047;-84
2021/03/07 06:25:30;;;;;;;19.52;8.95;;;8.80;51.60;;;;;;5077748;28;20116;-83
2021/03/07 06:27:57;;;;;;;16.98;8.65;;;8.60;50.80;;;;;;5077788;28;20024;-84
2021/03/07 06:30:25;;;;;;;19.75;8.77;;;8.50;50.50;;;;;;5080097;28;20028;-84
2021/03/07 06:32:53;;;;;;;14.20;8.32;;;8.40;50.40;;;;;;5075255;28;20024;-83
2021/03/07 06:35:28;;;;;;;18.63;9.68;;;8.40;50.40;;;;;;5074412;28;20035;-83
2021/03/07 06:38:05;;;;;;;18.63;8.52;;;8.40;50.10;;;;;;5074184;28;20027;-84
2021/03/07 06:40:43;;;;;;;16.83;9.52;;;8.50;50.30;;;;;;5072299;28;20025;-83
2021/03/07 06:43:23;;;;;;;20.15;9.20;;;8.50;50.10;;;;;;5073591;28;20103;-83
2021/03/07 06:45:49;;;;;;;18.45;9.23;;;8.60;49.80;;;;;;5073412;28;20552;-84
2021/03/07 06:48:15;;;;;;;14.27;8.77;;;8.70;49.50;;;;;;5073847;28;20052;-84
2021/03/07 06:51:11;;;;;;;14.18;8.77;;;8.60;49.00;;;;;;5072479;28;20415;-84
2021/03/07 06:53:41;;;;;;;39.35;10.70;;;8.40;48.80;;;;;;5058204;28;20047;-84
2021/03/07 06:56:07;;;;;;;23.55;9.25;;;8.30;48.80;;;;;;5084468;28;20016;-83
2021/03/07 06:58:33;;;;;;;18.73;9.20;;;8.10;48.60;;;;;;5078741;28;20025;-83
2021/03/07 07:00:59;;;;;;;15.80;8.82;;;7.90;48.70;;;;;;5074381;28;20099;-83
2021/03/07 07:03:25;;;;;;;19.55;9.65;;;7.80;48.60;;;;;;5073612;28;20049;-84
2021/03/07 07:05:53;;;;;;;22.15;10.00;;;7.70;48.80;;;;;;5073738;28;20356;-83
2021/03/07 07:08:43;;;;;;;19.30;9.18;;;7.60;48.90;;;;;;5076441;28;20017;-83
2021/03/07 07:11:09;;;;;;;23.65;9.48;;;7.60;48.90;;;;;;5077704;28;20024;-84
2021/03/07 07:13:47;;;;;;;16.80;9.55;;;7.70;49.30;;;;;;5073930;28;20036;-83
2021/03/07 07:16:14;;;;;;;26.08;9.93;;;7.90;49.50;;;;;;5071908;28;20024;-84
2021/03/07 07:18:43;;;;;;;14.85;9.48;;;8.10;49.50;;;;;;5073167;28;20099;-84
2021/03/07 07:21:12;;;;;;;20.02;10.23;;;8.40;49.40;;;;;;5073326;28;20016;-83
2021/03/07 07:23:38;;;;;;;24.08;9.88;;;8.70;49.20;;;;;;5071471;28;20386;-84
2021/03/07 07:26:05;;;;;;;21.67;9.75;;;8.90;49.00;;;;;;5072940;28;20141;-84
2021/03/07 07:28:33;;;;;;;18.83;10.98;;;9.30;48.60;;;;;;5072492;28;20039;-83
2021/03/07 07:31:25;;;;;;;22.38;10.80;;;9.50;48.20;;;;;;5073286;28;20040;-83
2021/03/07 07:33:52;;;;;;;32.45;11.43;;;9.50;47.40;;;;;;5064753;28;20040;-83
2021/03/07 07:36:52;;;;;;;18.65;11.02;;;9.60;47.50;;;;;;5073961;28;20017;-83
2021/03/07 07:39:48;;;;;;;23.38;11.50;;;9.70;47.30;;;;;;5072157;28;20073;-86
2021/03/07 07:42:24;;;;;;;31.60;11.65;;;9.80;47.10;;;;;;5072404;28;20024;-83
2021/03/07 07:44:52;;;;;;;20.58;11.32;;;9.90;46.60;;;;;;5068830;28;20064;-82
2021/03/07 07:47:18;;;;;;;33.17;12.32;;;9.90;46.60;;;;;;5073171;28;20020;-82
2021/03/07 07:49:54;;;;;;;22.10;11.70;;;9.90;46.50;;;;;;5074336;28;20075;-81
2021/03/07 07:52:26;;;;;;;35.30;12.43;;;10.00;46.50;;;;;;5072305;28;20067;-81
2021/03/07 07:55:09;;;;;;;34.60;12.27;;;10.20;46.60;;;;;;5070061;28;20056;-83
2021/03/07 07:57:38;;;;;;;24.67;12.38;;;10.50;46.90;;;;;;5072487;28;20637;-82
2021/03/07 08:00:07;;;;;;;30.92;11.85;;;10.70;46.40;;;;;;5072912;28;20020;-83
2021/03/07 08:02:53;;;;;;;23.05;12.13;;;10.90;46.10;;;;;;5072199;28;20025;-82
2021/03/07 08:05:22;;;;;;;20.95;11.90;;;11.10;45.60;;;;;;5073397;28;20024;-82
2021/03/07 08:08:12;;;;;;;25.80;11.90;;;11.30;45.40;;;;;;5072338;28;20044;-82
2021/03/07 08:10:38;;;;;;;32.20;11.70;;;11.40;45.00;;;;;;5070662;28;20031;-83
2021/03/07 08:13:05;;;;;;;25.42;11.95;;;11.50;44.70;;;;;;5070611;28;20411;-83
2021/03/07 08:15:34;;;;;;;37.08;13.13;;;11.60;44.20;;;;;;5071549;28;20020;-81
2021/03/07 08:18:03;;;;;;;24.08;11.75;;;11.60;44.00;;;;;;5073272;28;20378;-81
2021/03/07 08:20:38;;;;;;;21.70;11.25;;;11.70;43.90;;;;;;5072986;28;20074;-79
2021/03/07 08:23:13;;;;;;;19.73;11.40;;;11.80;43.60;;;;;;5073075;28;20024;-78
2021/03/07 08:25:51;;;;;;;21.77;11.35;;;11.80;43.30;;;;;;5071203;28;20059;-77
2021/03/07 08:28:25;;;;;;;18.40;10.77;;;11.90;43.20;;;;;;5070868;28;20025;-80
2021/03/07 08:30:56;;;;;;;28.45;12.63;;;12.00;43.10;;;;;;5071142;28;20183;-80
2021/03/07 08:33:22;;;;;;;35.15;12.35;;;12.10;43.00;;;;;;5070946;28;20024;-79
2021/03/07 08:36:15;;;;;;;19.17;10.98;;;12.30;43.00;;;;;;5071356;28;20078;-78
2021/03/07 08:38:53;;;;;;;;;;;12.40;42.40;;;;;;5071710;28;20024;-79
2021/03/07 08:41:23;;;;;;;27.08;11.55;;;12.50;42.80;;;;;;5071506;28;19911;-79
2021/03/07 08:43:57;;;;;;;35.03;11.05;;;12.50;42.40;;;;;;5069053;28;20028;-80
2021/03/07 08:46:26;;;;;;;25.95;11.77;;;12.50;42.20;;;;;;5071793;28;20074;-80
2021/03/07 08:49:08;;;;;;;22.05;11.55;;;12.50;42.10;;;;;;5070840;28;20052;-79
2021/03/07 08:51:36;;;;;;;22.35;11.50;;;12.50;42.00;;;;;;5071527;28;20028;-81
2021/03/07 08:54:08;;;;;;;21.83;11.35;;;12.60;42.00;;;;;;5070748;28;20040;-81
2021/03/07 08:56:41;;;;;;;25.73;12.18;;;12.60;41.80;;;;;;5072623;28;20482;-80
2021/03/07 08:59:09;;;;;;;24.15;11.73;;;12.60;41.70;;;;;;5070566;28;20028;-82
2021/03/07 09:01:35;;;;;;;25.90;12.32;;;12.60;41.60;;;;;;5073570;28;20105;-81
2021/03/07 09:04:06;;;;;;;21.55;11.63;;;12.60;41.50;;;;;;5075625;28;20044;-81
2021/03/07 09:06:39;;;;;;;22.75;11.98;;;12.50;41.30;;;;;;5075934;28;20059;-81
2021/03/07 09:09:13;;;;;;;21.17;11.60;;;12.40;41.30;;;;;;5076350;28;20029;-80
2021/03/07 09:12:04;;;;;;;25.42;12.20;;;12.40;41.50;;;;;;5076152;28;20040;-81
2021/03/07 09:14:32;;;;;;;24.77;12.35;;;12.40;41.50;;;;;;5075311;28;20052;-81
2021/03/07 09:17:00;;;;;;;23.98;12.70;;;12.50;41.70;;;;;;5076031;28;20017;-82
2021/03/07 09:19:40;;;;;;;19.10;11.63;;;12.50;41.60;;;;;;5076376;28;20099;-81
2021/03/07 09:22:16;;;;;;;17.45;12.05;;;12.50;41.50;;;;;;5074426;28;20017;-81
2021/03/07 09:24:57;;;;;;;20.88;11.93;;;12.50;41.30;;;;;;5075416;28;20039;-82
2021/03/07 09:27:25;;;;;;;25.85;11.98;;;12.50;41.30;;;;;;5074908;28;20451;-81
2021/03/07 09:30:06;;;;;;;26.05;11.73;;;12.50;41.50;;;;;;5074747;28;20056;-81
2021/03/07 09:32:38;;;;;;;24.17;12.70;;;12.50;41.50;;;;;;5073453;28;20371;-80
2021/03/07 09:35:31;;;;;;;20.58;11.35;;;12.50;41.60;;;;;;5074201;28;20025;-81
2021/03/07 09:38:07;;;;;;;49.22;13.75;;;12.50;41.50;;;;;;5075149;28;20051;-82
2021/03/07 09:40:38;;;;;;;20.83;11.73;;;12.50;41.50;;;;;;5073482;28;20021;-82
2021/03/07 09:43:12;;;;;;;25.85;12.27;;;12.60;41.50;;;;;;5073317;28;20025;-82
2021/03/07 09:45:49;;;;;;;23.25;12.00;;;12.60;41.30;;;;;;5073865;28;20048;-81
2021/03/07 09:48:19;;;;;;;22.67;11.48;;;12.70;41.40;;;;;;5074073;28;20077;-81
2021/03/07 09:50:45;;;;;;;20.10;11.45;;;12.70;41.30;;;;;;5075292;28;20081;-80
2021/03/07 09:53:13;;;;;;;22.02;12.02;;;12.80;41.30;;;;;;5074522;28;20028;-82
2021/03/07 09:55:40;;;;;;;21.80;12.20;;;12.80;41.20;;;;;;5075471;28;20016;-85
2021/03/07 09:58:09;;;;;;;29.75;12.63;;;12.80;40.90;;;;;;5073967;28;20021;-82
2021/03/07 10:00:36;;;;;;;38.25;12.52;;;12.80;41.00;;;;;;5076385;28;20142;-82
2021/03/07 10:03:03;;;;;;;27.70;12.13;;;12.90;41.00;;;;;;5073307;28;20075;-82
2021/03/07 10:05:29;;;;;;;33.20;12.68;;;12.90;41.00;;;;;;5075042;28;20028;-83
2021/03/07 10:07:55;;;;;;;26.77;12.50;;;12.90;40.80;;;;;;5076077;28;20057;-81
2021/03/07 10:10:23;;;;;;;23.85;11.68;;;13.00;41.00;;;;;;5074516;28;20471;-78
2021/03/07 10:12:57;;;;;;;24.02;11.55;;;13.00;40.90;;;;;;5073744;28;20025;-78
2021/03/07 10:15:29;;;;;;;29.33;12.40;;;13.10;40.50;;;;;;5072652;28;20078;-78
2021/03/07 10:17:59;;;;;;;48.67;14.57;;;13.00;40.40;;;;;;5074398;28;20013;-80
2021/03/07 10:20:33;;;;;;;56.38;12.52;;;13.10;40.60;;;;;;5074316;28;20028;-83
2021/03/07 10:22:59;;;;;;;28.27;11.55;;;13.30;40.60;;;;;;5073062;28;20116;-85
2021/03/07 10:25:31;;;;;;;48.22;13.70;;;13.40;40.00;;;;;;5076618;28;20021;-83
2021/03/07 10:28:02;;;;;;;29.05;12.63;;;13.50;39.80;;;;;;5074068;28;20024;-83
2021/03/07 10:30:37;;;;;;;28.63;11.95;;;13.60;40.00;;;;;;5073563;28;20115;-80
2021/03/07 10:33:07;;;;;;;20.15;10.88;;;13.60;39.60;;;;;;5072062;28;20166;-82
2021/03/07 10:35:33;;;;;;;25.58;10.57;;;13.60;39.40;;;;;;5072048;28;20047;-83
2021/03/07 10:37:59;;;;;;;28.73;11.65;;;13.60;39.60;;;;;;5073750;28;20020;-84
2021/03/07 10:40:35;;;;;;;19.35;10.98;;;13.70;39.60;;;;;;5073007;28;20013;-83
2021/03/07 10:43:03;;;;;;;36.47;12.27;;;13.60;39.30;;;;;;5072746;28;20356;-80
2021/03/07 10:45:30;;;;;;;29.02;11.10;;;13.50;39.40;;;;;;5074617;28;20467;-81
2021/03/07 10:48:18;;;;;;;20.80;10.25;;;13.40;39.20;;;;;;5073884;28;20028;-85
2021/03/07 10:50:44;;;;;;;22.88;10.25;;;13.20;39.20;;;;;;5073940;28;20075;-82
2021/03/07 10:53:11;;;;;;;21.88;11.70;;;13.00;39.50;;;;;;5073013;28;20089;-80
2021/03/07 10:55:37;;;;;;;23.02;10.02;;;12.90;39.60;;;;;;5071181;28;20025;-82
2021/03/07 10:58:03;;;;;;;21.15;10.48;;;12.70;39.50;;;;;;5072752;28;20021;-83
2021/03/07 11:00:29;;;;;;;22.70;10.77;;;12.50;39.80;;;;;;5073505;28;20024;-84
2021/03/07 11:02:57;;;;;;;84.35;12.77;;;12.40;40.00;;;;;;5073946;28;20032;-82
2021/03/07 11:05:24;;;;;;;22.23;9.43;;;12.10;40.00;;;;;;5071157;28;20020;-78
2021/03/07 11:07:50;;;;;;;33.92;10.15;;;11.80;40.10;;;;;;5073004;28;20029;-80
2021/03/07 11:10:18;;;;;;;23.88;10.63;;;11.60;40.40;;;;;;5072124;28;20028;-80
2021/03/07 11:12:44;;;;;;;16.83;10.25;;;11.40;40.70;;;;;;5072292;28;20024;-81
2021/03/07 11:15:12;;;;;;;22.83;10.13;;;11.30;41.10;;;;;;5072642;28;20044;-81
2021/03/07 11:17:38;;;;;;;21.38;10.55;;;11.20;41.40;;;;;;5072681;28;20024;-81
2021/03/07 11:20:06;;;;;;;28.13;10.70;;;11.20;41.60;;;;;;5072911;28;20028;-81
2021/03/07 11:22:31;;;;;;;25.48;10.35;;;11.10;41.70;;;;;;5073099;28;20026;-80
2021/03/07 11:24:57;;;;;;;33.65;11.18;;;11.00;41.80;;;;;;5070896;28;20032;-80
2021/03/07 11:27:23;;;;;;;20.70;10.15;;;10.90;41.90;;;;;;5071144;28;20061;-83
2021/03/07 11:29:48;;;;;;;22.65;10.55;;;10.70;42.00;;;;;;5071870;28;20450;-80
2021/03/07 11:32:14;;;;;;;29.40;10.75;;;10.40;42.10;;;;;;5073654;28;20039;-81
2021/03/07 11:34:40;;;;;;;16.75;10.85;;;10.20;42.20;;;;;;5072231;28;20032;-81
2021/03/07 11:37:06;;;;;;;36.50;10.77;;;9.90;42.60;;;;;;5072641;28;20056;-82
2021/03/07 11:39:31;;;;;;;16.52;10.32;;;9.70;42.90;;;;;;5073675;28;20016;-85
2021/03/07 11:41:57;;;;;;;27.50;10.18;;;9.50;43.20;;;;;;5073111;28;20047;-84
2021/03/07 11:44:23;;;;;;;37.58;11.07;;;9.30;43.50;;;;;;5072099;28;20023;-83
2021/03/07 11:46:53;;;;;;;24.90;10.73;;;9.20;43.90;;;;;;5070801;28;20028;-80
2021/03/07 11:49:22;;;;;;;29.92;10.38;;;9.10;44.20;;;;;;5068868;28;20514;-85
2021/03/07 11:51:48;;;;;;;22.38;10.80;;;8.90;44.30;;;;;;5071463;28;20031;-78
2021/03/07 11:54:14;;;;;;;19.65;10.68;;;8.80;44.60;;;;;;5073467;28;20029;-77
2021/03/07 11:56:40;;;;;;;30.05;10.10;;;8.80;44.90;;;;;;5072982;28;20020;-79
2021/03/07 11:59:05;;;;;;;18.45;10.43;;;8.70;45.00;;;;;;5070149;28;20056;-79
2021/03/07 12:01:31;;;;;;;16.88;10.25;;;8.60;45.20;;;;;;5069963;28;20020;-79
2021/03/07 12:03:58;;;;;;;17.40;9.98;;;8.60;45.50;;;;;;5069848;28;20097;-79
2021/03/07 12:06:24;;;;;;;19.90;9.80;;;8.50;45.60;;;;;;5070334;28;20474;-78
2021/03/07 12:08:50;;;;;;;21.25;10.30;;;8.50;45.80;;;;;;5070534;28;20047;-79
2021/03/07 12:11:17;;;;;;;17.65;9.00;;;8.40;45.80;;;;;;5070476;28;20455;-79
2021/03/07 12:13:43;;;;;;;14.73;9.63;;;8.30;45.80;;;;;;5070328;28;20059;-79
2021/03/07 12:16:09;;;;;;;17.05;9.68;;;8.30;46.10;;;;;;5068953;28;20059;-80
2021/03/07 12:18:37;;;;;;;23.70;9.95;;;8.20;46.10;;;;;;5070493;28;20028;-79
2021/03/07 12:21:04;;;;;;;15.10;8.57;;;8.10;46.10;;;;;;5070595;28;20498;-80
2021/03/07 12:23:30;;;;;;;13.85;8.90;;;8.00;46.40;;;;;;5071401;28;20039;-80
2021/03/07 12:25:55;;;;;;;19.25;9.27;;;8.00;46.60;;;;;;5070958;28;20386;-80
2021/03/07 12:28:21;;;;;;;28.52;9.13;;;8.00;46.90;;;;;;5070734;28;20100;-81
2021/03/07 12:30:47;;;;;;;19.75;9.25;;;7.90;46.80;;;;;;5071016;28;20040;-83
2021/03/07 12:33:13;;;;;;;21.98;9.00;;;7.80;47.00;;;;;;5069589;28;20032;-80
2021/03/07 12:35:38;;;;;;;16.13;9.75;;;7.80;47.20;;;;;;5071906;28;20470;-82
2021/03/07 12:38:04;;;;;;;19.95;9.40;;;7.80;47.40;;;;;;5071789;28;20032;-83
2021/03/07 12:40:30;;;;;;;22.35;9.88;;;7.70;47.50;;;;;;5076859;28;20099;-82
2021/03/07 12:42:56;;;;;;;18.98;9.55;;;7.60;47.60;;;;;;5075611;28;20351;-82
2021/03/07 12:45:22;;;;;;;17.48;9.07;;;7.60;47.80;;;;;;5078471;28;20078;-82
2021/03/07 12:47:48;;;;;;;14.05;9.07;;;7.50;47.90;;;;;;5076832;28;20020;-82